Time;durP1;ratioP1;P1;durP2;ratioP2;P2;SDS_P1;SDS_P2;PMS_P1;PMS_P2;Temp;Humidity;BMP_temperature;BMP_pressure;BME280_temperature;BME280_humidity;BME280_pressure;Samples;Min_cycle;Max_cycle;Signal;HPM_P1;HPM_P2
2022/02/09 00:03:45;;;;;;;2.75;1.27;;;;;;;;;;5032218;28;20034;-76
2022/02/09 00:06:16;;;;;;;2.65;1.63;;;;;;;;;;5048341;28;20103;-76
2022/02/09 00:08:41;;;;;;;2.35;1.15;;;;;;;;;;5031924;28;20149;-76
2022/02/09 00:11:08;;;;;;;2.85;1.30;;;;;;;;;;5021704;28;20053;-76
2022/02/09 00:14:15;;;;;;;2.97;1.23;;;;;;;;;;5016065;28;20140;-76
2022/02/09 00:19:01;;;;;;;2.25;1.15;;;;;;;;;;5019644;28;20032;-76
2022/02/09 00:24:31;;;;;;;2.45;1.00;;;;;;;;;;5019682;28;20025;-76
2022/02/09 00:32:33;;;;;;;2.17;1.30;;;;;;;;;;5019810;28;20410;-76
2022/02/09 00:59:49;;;;;;;2.47;1.08;;;;;;;;;;5037816;28;20047;-76
2022/02/09 01:03:03;;;;;;;2.67;1.60;;;;;;;;;;5025057;28;20140;-75
2022/02/09 01:40:34;;;;;;;1.73;1.13;;;;;;;;;;5019382;28;20041;-75
2022/02/09 01:56:55;;;;;;;2.40;1.00;;;;;;;;;;5024681;28;20037;-76
2022/02/09 01:59:21;;;;;;;2.22;1.10;;;;;;;;;;5005308;28;20082;-75
2022/02/09 02:01:46;;;;;;;1.85;0.90;;;;;;;;;;5001237;28;20044;-76
2022/02/09 02:04:12;;;;;;;2.38;0.95;;;;;;;;;;5017194;28;20048;-76
2022/02/09 02:06:37;;;;;;;2.63;1.02;;;;;;;;;;5000931;28;20029;-76
2022/02/09 02:09:03;;;;;;;1.42;1.00;;;;;;;;;;5000893;28;20072;-76
2022/02/09 02:14:28;;;;;;;1.92;0.82;;;;;;;;;;5015407;28;20080;-76
2022/02/09 02:16:51;;;;;;;2.67;1.15;;;;;;;;;;5022241;28;20463;-76
2022/02/09 02:22:13;;;;;;;3.00;1.20;;;;;;;;;;4997999;28;20034;-76
2022/02/09 02:46:09;;;;;;;1.92;0.70;;;;;;;;;;5013685;28;20044;-76
2022/02/09 03:14:55;;;;;;;1.95;0.80;;;;;;;;;;5033508;28;20030;-75
2022/02/09 03:17:30;;;;;;;2.50;0.85;;;;;;;;;;5033607;28;20464;-75
2022/02/09 03:20:04;;;;;;;3.30;0.80;;;;;;;;;;5031885;28;20037;-75
2022/02/09 03:49:33;;;;;;;2.05;0.63;;;;;;;;;;5052029;28;20040;-76
2022/02/09 03:59:29;;;;;;;1.27;0.70;;;;;;;;;;5036644;28;20037;-75
2022/02/09 04:01:55;;;;;;;2.47;1.20;;;;;;;;;;5020482;28;20062;-75
2022/02/09 04:04:20;;;;;;;2.25;0.90;;;;;;;;;;5018985;28;20098;-76
2022/02/09 04:06:49;;;;;;;1.45;1.00;;;;;;;;;;5035291;28;20065;-76
2022/02/09 04:09:17;;;;;;;1.48;0.70;;;;;;;;;;4995787;28;20466;-76
2022/02/09 04:14:32;;;;;;;2.53;0.93;;;;;;;;;;5032475;28;20566;-75
2022/02/09 04:17:39;;;;;;;1.75;0.82;;;;;;;;;;5033380;28;20048;-75
2022/02/09 04:43:34;;;;;;;1.92;0.77;;;;;;;;;;5018639;28;20044;-76
2022/02/09 04:51:39;;;;;;;1.23;0.70;;;;;;;;;;5018953;28;20554;-75
2022/02/09 05:02:10;;;;;;;2.30;0.77;;;;;;;;;;5031700;28;20496;-75
2022/02/09 05:24:02;;;;;;;1.33;0.82;;;;;;;;;;5031026;28;20495;-75
2022/02/09 05:29:12;;;;;;;2.15;0.80;;;;;;;;;;5031512;28;20041;-76
2022/02/09 05:31:38;;;;;;;1.63;0.80;;;;;;;;;;5026355;28;20480;-75
2022/02/09 05:34:04;;;;;;;2.35;1.27;;;;;;;;;;5030639;28;20033;-76
2022/02/09 05:36:29;;;;;;;2.25;0.80;;;;;;;;;;4999846;28;20041;-76
2022/02/09 05:38:56;;;;;;;1.70;0.75;;;;;;;;;;4996394;28;20041;-75
2022/02/09 05:41:22;;;;;;;1.02;0.80;;;;;;;;;;4996407;28;20423;-75
2022/02/09 05:43:47;;;;;;;4.28;1.33;;;;;;;;;;4995901;28;20504;-75
2022/02/09 05:46:57;;;;;;;1.30;0.80;;;;;;;;;;4997126;28;20040;-75
2022/02/09 05:51:52;;;;;;;2.45;0.90;;;;;;;;;;5019719;28;20551;-76
2022/02/09 05:54:48;;;;;;;1.15;0.60;;;;;;;;;;5017822;28;20052;-76
2022/02/09 05:59:47;;;;;;;2.13;0.90;;;;;;;;;;5035780;28;20099;-75
2022/02/09 06:02:15;;;;;;;2.25;0.90;;;;;;;;;;5017277;28;20096;-75
2022/02/09 06:04:40;;;;;;;1.70;0.73;;;;;;;;;;4983524;28;20504;-75
2022/02/09 06:07:06;;;;;;;1.30;0.70;;;;;;;;;;5013729;28;20136;-76
2022/02/09 06:09:31;;;;;;;1.48;0.82;;;;;;;;;;4997734;28;20037;-76
2022/02/09 06:19:53;;;;;;;1.77;0.70;;;;;;;;;;5022536;28;20037;-75
2022/02/09 06:22:20;;;;;;;1.30;0.68;;;;;;;;;;5018002;28;20033;-75
2022/02/09 06:24:45;;;;;;;1.30;0.50;;;;;;;;;;5016710;28;20036;-76
2022/02/09 06:27:11;;;;;;;1.33;0.70;;;;;;;;;;5017816;28;20045;-75
2022/02/09 06:29:37;;;;;;;2.97;1.13;;;;;;;;;;5017117;28;20037;-75
2022/02/09 06:32:08;;;;;;;1.30;0.68;;;;;;;;;;5027516;28;20069;-75
2022/02/09 06:34:35;;;;;;;1.23;0.60;;;;;;;;;;5017316;28;20038;-74
2022/02/09 06:37:11;;;;;;;3.60;0.82;;;;;;;;;;5019745;28;20076;-75
2022/02/09 06:39:36;;;;;;;1.25;0.68;;;;;;;;;;5028699;28;20508;-76
2022/02/09 06:42:02;;;;;;;3.53;0.75;;;;;;;;;;5034423;28;20046;-74
2022/02/09 06:44:30;;;;;;;2.25;0.80;;;;;;;;;;5020294;28;20407;-74
2022/02/09 06:46:55;;;;;;;3.08;0.73;;;;;;;;;;5018606;28;20099;-73
2022/02/09 06:49:22;;;;;;;1.38;0.85;;;;;;;;;;5036314;28;20032;-75
2022/02/09 06:51:47;;;;;;;1.60;0.73;;;;;;;;;;5020922;28;20049;-76
2022/02/09 06:54:24;;;;;;;2.92;0.82;;;;;;;;;;5034348;28;20399;-77
2022/02/09 07:01:46;;;;;;;5.97;1.60;;;;;;;;;;5008810;28;20041;-76
2022/02/09 07:04:12;;;;;;;3.03;1.00;;;;;;;;;;4998738;28;20052;-76
2022/02/09 07:06:37;;;;;;;3.20;0.90;;;;;;;;;;5014104;28;20073;-76
2022/02/09 07:09:03;;;;;;;3.40;0.98;;;;;;;;;;5000471;28;20040;-76
2022/02/09 07:11:28;;;;;;;1.83;0.77;;;;;;;;;;5000552;28;20115;-76
2022/02/09 07:13:54;;;;;;;3.83;1.00;;;;;;;;;;5016612;28;20044;-76
2022/02/09 07:16:21;;;;;;;2.25;0.80;;;;;;;;;;4987458;28;20419;-76
2022/02/09 07:18:48;;;;;;;6.97;1.40;;;;;;;;;;5015932;28;20041;-76
2022/02/09 07:21:19;;;;;;;2.78;0.93;;;;;;;;;;5020794;28;20064;-75
2022/02/09 07:23:48;;;;;;;4.85;1.00;;;;;;;;;;5005215;28;20029;-76
2022/02/09 07:26:18;;;;;;;4.25;0.98;;;;;;;;;;5037481;28;20064;-75
2022/02/09 07:28:44;;;;;;;2.97;1.33;;;;;;;;;;5003952;28;20044;-74
2022/02/09 07:31:10;;;;;;;4.18;1.13;;;;;;;;;;5049996;28;20067;-75
2022/02/09 07:33:36;;;;;;;4.65;0.80;;;;;;;;;;5015561;28;20036;-75
2022/02/09 07:36:02;;;;;;;4.22;1.35;;;;;;;;;;5033078;28;20033;-75
2022/02/09 07:38:27;;;;;;;5.25;1.75;;;;;;;;;;5022315;28;20030;-75
2022/02/09 07:40:57;;;;;;;5.68;1.40;;;;;;;;;;5033908;28;20095;-75
2022/02/09 07:43:34;;;;;;;4.18;1.17;;;;;;;;;;4984169;28;20033;-75
2022/02/09 07:46:21;;;;;;;3.72;0.85;;;;;;;;;;5002011;28;20029;-75
2022/02/09 07:53:58;;;;;;;4.20;0.95;;;;;;;;;;5019729;28;20037;-74
2022/02/09 07:56:23;;;;;;;1.50;0.93;;;;;;;;;;5022975;28;20051;-75
2022/02/09 07:58:48;;;;;;;8.57;1.42;;;;;;;;;;5003238;28;20033;-75
2022/02/09 08:01:14;;;;;;;2.83;1.00;;;;;;;;;;5019115;28;20045;-75
2022/02/09 08:03:41;;;;;;;2.80;1.63;;;;;;;;;;5018748;28;20450;-75
2022/02/09 08:06:06;;;;;;;3.67;1.13;;;;;;;;;;5036013;28;20112;-75
2022/02/09 08:08:33;;;;;;;2.97;0.80;;;;;;;;;;4989857;28;20030;-75
2022/02/09 08:11:12;;;;;;;5.88;1.70;;;;;;;;;;5015882;28;20072;-76
2022/02/09 08:30:20;;;;;;;3.10;1.50;;;;;;;;;;5000410;28;20125;-75
2022/02/09 08:35:15;;;;;;;6.45;3.00;;;;;;;;;;5017268;28;20100;-75
2022/02/09 08:37:40;;;;;;;5.40;2.50;;;;;;;;;;5002575;28;20068;-75
2022/02/09 08:40:06;;;;;;;5.53;2.67;;;;;;;;;;5016821;28;20111;-75
2022/02/09 08:42:33;;;;;;;5.22;2.28;;;;;;;;;;4990400;28;20049;-75
2022/02/09 08:44:59;;;;;;;4.57;1.92;;;;;;;;;;5020776;28;20045;-75
2022/02/09 08:47:25;;;;;;;4.88;2.38;;;;;;;;;;4998924;28;20045;-75
2022/02/09 08:49:51;;;;;;;5.00;1.95;;;;;;;;;;4998167;28;20031;-75
2022/02/09 08:52:16;;;;;;;5.80;1.92;;;;;;;;;;5014804;28;20053;-75
2022/02/09 08:54:42;;;;;;;6.75;2.50;;;;;;;;;;5029413;28;20424;-75
2022/02/09 08:57:10;;;;;;;5.00;2.00;;;;;;;;;;5030677;28;20044;-75
2022/02/09 08:59:36;;;;;;;5.03;2.15;;;;;;;;;;5003086;28;20037;-76
2022/02/09 09:02:05;;;;;;;8.85;4.25;;;;;;;;;;5016708;28;20068;-75
2022/02/09 09:04:38;;;;;;;6.65;3.35;;;;;;;;;;5032718;28;20032;-75
2022/02/09 09:07:12;;;;;;;6.85;3.50;;;;;;;;;;4999389;28;20155;-75
2022/02/09 09:09:49;;;;;;;5.40;3.40;;;;;;;;;;5008237;28;20575;-75
2022/02/09 09:17:47;;;;;;;9.40;4.78;;;;;;;;;;5027509;28;20037;-75
2022/02/09 10:31:05;;;;;;;8.18;2.97;;;;;;;;;;5021435;28;20041;-76
2022/02/09 10:33:31;;;;;;;14.73;3.47;;;;;;;;;;5021955;28;20037;-76
2022/02/09 10:36:15;;;;;;;5.75;2.50;;;;;;;;;;5016757;28;20044;-76
2022/02/09 10:38:43;;;;;;;10.25;3.08;;;;;;;;;;5019710;28;20048;-76
2022/02/09 10:41:10;;;;;;;6.57;2.42;;;;;;;;;;4997012;28;20034;-76
2022/02/09 10:43:37;;;;;;;7.15;2.95;;;;;;;;;;5015613;28;20072;-77
2022/02/09 10:46:11;;;;;;;10.75;3.58;;;;;;;;;;5030267;28;20041;-76
2022/02/09 10:48:46;;;;;;;7.60;2.40;;;;;;;;;;5048581;28;20064;-76
2022/02/09 10:54:03;;;;;;;6.72;2.75;;;;;;;;;;5016265;28;20037;-76
2022/02/09 10:56:29;;;;;;;5.05;2.38;;;;;;;;;;5035857;28;20037;-76
2022/02/09 10:58:57;;;;;;;6.78;2.33;;;;;;;;;;5013860;28;20529;-76
2022/02/09 11:01:22;;;;;;;5.63;2.30;;;;;;;;;;4999108;28;20052;-76
2022/02/09 11:03:50;;;;;;;7.78;2.80;;;;;;;;;;5014761;28;20048;-76
2022/02/09 11:06:16;;;;;;;7.10;3.10;;;;;;;;;;4998546;28;20073;-77
2022/02/09 11:08:41;;;;;;;6.35;2.70;;;;;;;;;;4997145;28;20041;-76
2022/02/09 11:11:07;;;;;;;8.77;3.13;;;;;;;;;;5018778;28;20049;-77
2022/02/09 11:13:32;;;;;;;7.45;2.70;;;;;;;;;;4983605;28;20479;-76
2022/02/09 11:15:58;;;;;;;9.10;2.65;;;;;;;;;;4981783;28;20053;-76
2022/02/09 11:18:23;;;;;;;7.22;2.85;;;;;;;;;;5018339;28;20384;-76
2022/02/09 11:20:58;;;;;;;9.27;3.55;;;;;;;;;;5020267;28;20033;-76
2022/02/09 11:23:45;;;;;;;6.50;3.35;;;;;;;;;;5034221;28;20036;-76
2022/02/09 11:26:43;;;;;;;9.95;3.50;;;;;;;;;;5036959;28;20099;-76
2022/02/09 11:32:15;;;;;;;10.45;3.80;;;;;;;;;;5016762;28;20952;-76
2022/02/09 11:35:35;;;;;;;11.23;3.10;;;;;;;;;;5033632;28;20455;-76
2022/02/09 11:43:37;;;;;;;12.10;6.30;;;;;;;;;;5021417;28;20041;-76
2022/02/09 12:00:37;;;;;;;7.97;4.68;;;;;;;;;;4931353;29;20126;-76
2022/02/09 12:12:00;;;;;;;5.70;3.17;;;;;;;;;;5017485;28;20033;-76
2022/02/09 12:14:55;;;;;;;8.32;3.92;;;;;;;;;;5005811;28;20040;-76
2022/02/09 12:20:27;;;;;;;8.82;3.70;;;;;;;;;;5018486;28;20128;-76
2022/02/09 12:23:13;;;;;;;7.47;3.30;;;;;;;;;;5016403;28;20436;-76
2022/02/09 12:25:43;;;;;;;8.18;3.95;;;;;;;;;;5038555;28;20032;-76
2022/02/09 12:28:22;;;;;;;7.40;3.65;;;;;;;;;;5017049;28;20029;-76
2022/02/09 12:30:47;;;;;;;7.88;3.33;;;;;;;;;;5024450;28;20045;-76
2022/02/09 12:33:23;;;;;;;7.97;3.60;;;;;;;;;;5037929;28;21029;-76
2022/02/09 12:35:49;;;;;;;10.38;3.08;;;;;;;;;;4998698;28;20566;-76
2022/02/09 12:38:14;;;;;;;7.68;3.90;;;;;;;;;;5020810;28;20164;-76
2022/02/09 12:40:40;;;;;;;5.88;2.85;;;;;;;;;;5021032;28;20696;-76
2022/02/09 12:43:07;;;;;;;5.80;3.42;;;;;;;;;;5012759;28;20029;-76
2022/02/09 12:45:35;;;;;;;5.70;2.72;;;;;;;;;;5007407;28;20045;-76
2022/02/09 12:48:01;;;;;;;5.72;2.92;;;;;;;;;;5008976;28;20547;-76
2022/02/09 12:50:33;;;;;;;5.18;2.97;;;;;;;;;;5028480;28;20657;-76
2022/02/09 12:52:58;;;;;;;5.70;2.65;;;;;;;;;;5024780;28;20043;-76
2022/02/09 12:55:28;;;;;;;5.47;2.53;;;;;;;;;;5011898;28;20411;-76
2022/02/09 12:57:55;;;;;;;6.43;2.20;;;;;;;;;;4991532;28;20053;-76
2022/02/09 13:00:25;;;;;;;6.20;2.85;;;;;;;;;;4997957;28;20063;-76
2022/02/09 13:02:51;;;;;;;6.32;2.75;;;;;;;;;;5020482;28;20091;-76
2022/02/09 13:05:16;;;;;;;4.85;2.30;;;;;;;;;;5014378;28;20033;-76
2022/02/09 13:07:50;;;;;;;5.53;2.65;;;;;;;;;;5024973;28;20092;-76
2022/02/09 13:10:33;;;;;;;5.68;2.53;;;;;;;;;;5023048;28;20133;-76
2022/02/09 13:13:05;;;;;;;4.88;2.20;;;;;;;;;;5028341;28;20048;-76
2022/02/09 13:15:37;;;;;;;5.82;3.60;;;;;;;;;;5016587;28;20064;-76
2022/02/09 13:21:39;;;;;;;5.28;2.63;;;;;;;;;;5009964;28;20053;-76
2022/02/09 14:10:26;;;;;;;13.50;6.60;;;;;;;;;;5032567;28;20131;-76
2022/02/09 14:13:50;;;;;;;10.25;5.93;;;;;;;;;;4998306;28;20030;-77
2022/02/09 14:58:45;;;;;;;12.00;5.07;;;;;;;;;;5022169;28;20038;-77
2022/02/09 15:01:19;;;;;;;10.93;4.82;;;;;;;;;;4997861;28;20439;-76
2022/02/09 15:08:50;;;;;;;7.97;4.07;;;;;;;;;;5017591;28;20044;-77
2022/02/09 15:24:02;;;;;;;12.27;4.55;;;;;;;;;;5017640;28;20025;-76
2022/02/09 15:26:28;;;;;;;14.88;5.07;;;;;;;;;;5000145;28;20043;-77
2022/02/09 15:28:56;;;;;;;13.65;5.07;;;;;;;;;;4989678;28;20492;-77
2022/02/09 15:31:43;;;;;;;13.07;4.57;;;;;;;;;;4985135;28;20051;-77
2022/02/09 15:34:17;;;;;;;9.57;4.15;;;;;;;;;;5005559;28;20033;-77
2022/02/09 15:36:52;;;;;;;11.30;4.40;;;;;;;;;;5017432;28;20444;-77
2022/02/09 15:39:19;;;;;;;9.52;3.80;;;;;;;;;;5017623;28;20119;-76
2022/02/09 15:42:02;;;;;;;10.50;3.83;;;;;;;;;;5000819;28;20037;-76
2022/02/09 16:07:22;;;;;;;9.63;3.53;;;;;;;;;;5018878;28;20037;-76
2022/02/09 16:20:13;;;;;;;7.18;3.88;;;;;;;;;;5016668;28;20094;-76
2022/02/09 16:22:39;;;;;;;5.82;3.45;;;;;;;;;;5008292;28;20063;-77
2022/02/09 16:33:19;;;;;;;12.63;3.65;;;;;;;;;;5016930;28;20501;-77
2022/02/09 16:46:39;;;;;;;6.60;3.20;;;;;;;;;;5002409;28;20377;-76
2022/02/09 16:51:35;;;;;;;9.93;3.88;;;;;;;;;;4999412;28;20041;-76
2022/02/09 16:54:11;;;;;;;12.05;3.50;;;;;;;;;;5000731;28;20036;-76
2022/02/09 17:18:44;;;;;;;17.13;3.28;;;;;;;;;;5002978;28;20038;-76
2022/02/09 17:21:08;;;;;;;11.45;3.42;;;;;;;;;;5003169;28;20503;-76
2022/02/09 17:23:33;;;;;;;9.13;3.10;;;;;;;;;;5014566;28;20041;-77
2022/02/09 17:25:59;;;;;;;9.02;3.17;;;;;;;;;;4998387;28;20037;-76
2022/02/09 17:28:24;;;;;;;9.80;3.38;;;;;;;;;;5012859;28;20036;-76
2022/02/09 17:31:16;;;;;;;6.43;2.67;;;;;;;;;;5002001;28;20025;-77
2022/02/09 17:39:24;;;;;;;6.70;3.50;;;;;;;;;;5020283;28;20120;-76
2022/02/09 17:58:14;;;;;;;8.23;4.10;;;;;;;;;;5020510;28;20072;-77
2022/02/09 18:00:39;;;;;;;10.48;4.65;;;;;;;;;;5019302;28;20454;-76
2022/02/09 18:03:05;;;;;;;9.02;4.70;;;;;;;;;;5017548;28;20029;-76
2022/02/09 18:05:53;;;;;;;8.00;3.83;;;;;;;;;;5000499;28;20041;-76
2022/02/09 18:08:31;;;;;;;7.07;4.20;;;;;;;;;;5023049;28;20602;-76
2022/02/09 18:13:57;;;;;;;7.47;4.47;;;;;;;;;;5017732;28;20182;-76
2022/02/09 18:27:38;;;;;;;7.00;4.28;;;;;;;;;;5038587;28;20071;-77
2022/02/09 18:29:52;;;;;;;7.40;4.78;;;;;;;;;;5011908;28;20045;-76
2022/02/09 18:42:56;;;;;;;7.75;4.28;;;;;;;;;;5008203;28;20045;-76
2022/02/09 19:01:59;;;;;;;10.20;4.57;;;;;;;;;;5022888;28;20037;-77
2022/02/09 19:18:12;;;;;;;9.55;4.00;;;;;;;;;;5006595;28;20487;-77
2022/02/09 19:20:59;;;;;;;10.95;4.70;;;;;;;;;;4992210;28;20052;-76
2022/02/09 19:31:41;;;;;;;7.07;4.22;;;;;;;;;;5004005;28;20060;-76
2022/02/09 19:47:42;;;;;;;8.02;5.32;;;;;;;;;;5016642;28;20093;-77
2022/02/09 19:50:51;;;;;;;7.57;4.95;;;;;;;;;;5019062;28;20499;-77
2022/02/09 19:55:41;;;;;;;8.70;6.07;;;;;;;;;;5001001;28;20026;-76
2022/02/09 19:58:08;;;;;;;9.27;5.68;;;;;;;;;;5000311;28;20033;-77
2022/02/09 20:00:36;;;;;;;9.23;6.00;;;;;;;;;;5000712;28;20496;-76
2022/02/09 20:03:02;;;;;;;11.65;6.15;;;;;;;;;;4984777;28;20049;-77
2022/02/09 20:05:28;;;;;;;10.25;6.22;;;;;;;;;;4999290;28;20077;-76
2022/02/09 20:07:54;;;;;;;9.35;5.55;;;;;;;;;;4983957;28;20041;-76
2022/02/09 20:10:21;;;;;;;10.02;5.80;;;;;;;;;;5000127;28;20037;-76
2022/02/09 20:12:46;;;;;;;10.20;6.20;;;;;;;;;;4999815;28;20045;-77
2022/02/09 20:15:13;;;;;;;11.93;6.30;;;;;;;;;;4999504;28;20487;-77
2022/02/09 20:17:41;;;;;;;14.75;6.35;;;;;;;;;;4983420;28;20037;-77
2022/02/09 20:20:09;;;;;;;8.77;5.82;;;;;;;;;;4999754;28;20034;-77
2022/02/09 20:22:35;;;;;;;9.20;6.20;;;;;;;;;;5000380;28;20483;-77
2022/02/09 20:25:00;;;;;;;9.88;5.72;;;;;;;;;;5015976;28;20032;-77
2022/02/09 20:27:26;;;;;;;8.73;5.95;;;;;;;;;;5005892;28;20515;-77
2022/02/09 20:29:52;;;;;;;9.20;5.95;;;;;;;;;;5018842;28;20503;-77
2022/02/09 20:32:23;;;;;;;8.27;5.50;;;;;;;;;;5011983;28;20100;-77
2022/02/09 20:34:55;;;;;;;12.93;6.00;;;;;;;;;;5000926;28;20025;-77
2022/02/09 20:37:21;;;;;;;10.10;5.85;;;;;;;;;;5000306;28;20414;-77
2022/02/09 20:42:22;;;;;;;10.90;6.28;;;;;;;;;;5033370;28;20033;-77
2022/02/09 20:45:25;;;;;;;10.73;6.57;;;;;;;;;;5035452;28;20068;-77
2022/02/09 20:47:44;;;;;;;8.52;5.85;;;;;;;;;;5028178;28;20171;-77
2022/02/09 20:50:09;;;;;;;15.48;6.40;;;;;;;;;;5022118;28;20410;-77
2022/02/09 20:52:35;;;;;;;8.00;6.03;;;;;;;;;;5002419;28;20033;-77
2022/02/09 20:55:00;;;;;;;9.18;5.35;;;;;;;;;;5009316;28;20154;-77
2022/02/09 20:57:29;;;;;;;9.02;6.25;;;;;;;;;;4986873;28;20447;-77
2022/02/09 21:00:03;;;;;;;8.05;5.75;;;;;;;;;;5034183;28;20044;-76
2022/02/09 21:02:44;;;;;;;9.73;6.30;;;;;;;;;;5019935;28;20029;-77
2022/02/09 21:08:10;;;;;;;10.95;6.32;;;;;;;;;;5010312;28;20140;-77
2022/02/09 21:13:07;;;;;;;10.35;5.65;;;;;;;;;;5004033;28;20496;-77
2022/02/09 21:23:21;;;;;;;9.57;5.90;;;;;;;;;;4998218;28;20029;-76
2022/02/09 22:19:16;;;;;;;9.10;5.65;;;;;;;;;;5007946;28;20458;-77
2022/02/09 22:26:05;;;;;;;8.45;6.65;;;;;;;;;;5002662;28;20555;-77
2022/02/09 22:27:47;;;;;;;7.30;5.80;;;;;;;;;;5007662;28;20077;-76
2022/02/09 22:56:40;;;;;;;9.30;5.88;;;;;;;;;;5034812;28;20530;-76
2022/02/09 22:59:11;;;;;;;10.60;6.82;;;;;;;;;;5017863;28;20491;-76
2022/02/09 23:02:22;;;;;;;9.18;6.70;;;;;;;;;;5030727;28;20040;-76
2022/02/09 23:04:41;;;;;;;7.55;5.47;;;;;;;;;;5033732;28;20099;-76
2022/02/09 23:07:30;;;;;;;8.10;6.05;;;;;;;;;;5003423;28;20040;-76
2022/02/09 23:28:56;;;;;;;7.30;5.60;;;;;;;;;;5009238;28;20041;-76
